sensor_id;sensor_type;location;lat;lon;timestamp;temperature;humidity
39983;DHT22;25670;44.782;10.356;2022-09-13T00:02:06;19.50;99.90
39983;DHT22;25670;44.782;10.356;2022-09-13T00:04:32;19.60;99.90
39983;DHT22;25670;44.782;10.356;2022-09-13T00:06:58;16.90;99.90
39983;DHT22;25670;44.782;10.356;2022-09-13T00:09:25;19.60;99.90
39983;DHT22;25670;44.782;10.356;2022-09-13T00:11:51;19.40;99.90
39983;DHT22;25670;44.782;10.356;2022-09-13T00:14:17;19.50;99.90
39983;DHT22;25670;44.782;10.356;2022-09-13T00:16:44;19.40;99.90
39983;DHT22;25670;44.782;10.356;2022-09-13T00:19:10;19.40;99.90
39983;DHT22;25670;44.782;10.356;2022-09-13T00:21:36;19.30;99.90
39983;DHT22;25670;44.782;10.356;2022-09-13T00:24:02;19.30;99.90
39983;DHT22;25670;44.782;10.356;2022-09-13T00:26:29;19.30;99.90
39983;DHT22;25670;44.782;10.356;2022-09-13T00:28:57;19.30;99.90
39983;DHT22;25670;44.782;10.356;2022-09-13T00:31:25;19.20;99.90
39983;DHT22;25670;44.782;10.356;2022-09-13T00:33:52;19.30;99.90
39983;DHT22;25670;44.782;10.356;2022-09-13T00:36:19;19.40;99.90
39983;DHT22;25670;44.782;10.356;2022-09-13T00:38:45;19.20;99.90
39983;DHT22;25670;44.782;10.356;2022-09-13T00:41:17;19.40;99.90
39983;DHT22;25670;44.782;10.356;2022-09-13T00:43:58;19.30;99.90
39983;DHT22;25670;44.782;10.356;2022-09-13T00:46:46;19.30;99.90
39983;DHT22;25670;44.782;10.356;2022-09-13T00:51:44;19.30;99.90
39983;DHT22;25670;44.782;10.356;2022-09-13T00:54:14;19.20;99.90
39983;DHT22;25670;44.782;10.356;2022-09-13T00:56:47;19.20;99.90
39983;DHT22;25670;44.782;10.356;2022-09-13T00:59:20;19.10;99.90
39983;DHT22;25670;44.782;10.356;2022-09-13T01:01:52;19.10;99.90
39983;DHT22;25670;44.782;10.356;2022-09-13T01:04:23;19.10;99.90
39983;DHT22;25670;44.782;10.356;2022-09-13T01:06:53;19.10;99.90
39983;DHT22;25670;44.782;10.356;2022-09-13T01:09:20;19.00;99.90
39983;DHT22;25670;44.782;10.356;2022-09-13T01:12:03;19.10;99.90
39983;DHT22;25670;44.782;10.356;2022-09-13T01:14:33;19.00;99.90
39983;DHT22;25670;44.782;10.356;2022-09-13T01:16:59;18.90;99.90
39983;DHT22;25670;44.782;10.356;2022-09-13T01:19:26;18.70;99.90
39983;DHT22;25670;44.782;10.356;2022-09-13T01:28:00;18.50;99.90
39983;DHT22;25670;44.782;10.356;2022-09-13T01:30:46;18.40;99.90
39983;DHT22;25670;44.782;10.356;2022-09-13T01:39:26;18.40;99.90
39983;DHT22;25670;44.782;10.356;2022-09-13T01:42:20;18.50;99.90
39983;DHT22;25670;44.782;10.356;2022-09-13T01:52:58;18.70;99.90
39983;DHT22;25670;44.782;10.356;2022-09-13T02:00:33;18.90;99.90
39983;DHT22;25670;44.782;10.356;2022-09-13T02:03:16;18.80;99.90
39983;DHT22;25670;44.782;10.356;2022-09-13T02:06:04;18.70;99.90
39983;DHT22;25670;44.782;10.356;2022-09-13T02:08:44;18.70;99.90
39983;DHT22;25670;44.782;10.356;2022-09-13T02:11:14;18.80;99.90
39983;DHT22;25670;44.782;10.356;2022-09-13T02:14:07;18.90;99.90
39983;DHT22;25670;44.782;10.356;2022-09-13T02:16:40;19.00;99.90
39983;DHT22;25670;44.782;10.356;2022-09-13T02:19:18;19.00;99.90
39983;DHT22;25670;44.782;10.356;2022-09-13T02:21:57;19.10;99.90
39983;DHT22;25670;44.782;10.356;2022-09-13T02:24:46;19.20;99.90
39983;DHT22;25670;44.782;10.356;2022-09-13T02:27:20;19.00;99.90
39983;DHT22;25670;44.782;10.356;2022-09-13T02:29:52;19.10;99.90
39983;DHT22;25670;44.782;10.356;2022-09-13T02:32:25;19.00;99.90
39983;DHT22;25670;44.782;10.356;2022-09-13T02:35:00;19.00;99.90
39983;DHT22;25670;44.782;10.356;2022-09-13T02:37:31;19.10;99.90
39983;DHT22;25670;44.782;10.356;2022-09-13T02:40:03;19.00;99.90
39983;DHT22;25670;44.782;10.356;2022-09-13T02:42:37;14.70;99.90
39983;DHT22;25670;44.782;10.356;2022-09-13T02:45:07;18.90;99.90
39983;DHT22;25670;44.782;10.356;2022-09-13T02:47:59;19.00;99.90
39983;DHT22;25670;44.782;10.356;2022-09-13T02:53:42;18.90;99.90
39983;DHT22;25670;44.782;10.356;2022-09-13T02:56:23;18.70;99.90
39983;DHT22;25670;44.782;10.356;2022-09-13T03:01:20;18.80;99.90
39983;DHT22;25670;44.782;10.356;2022-09-13T03:03:46;18.80;99.90
39983;DHT22;25670;44.782;10.356;2022-09-13T03:06:21;18.80;99.90
39983;DHT22;25670;44.782;10.356;2022-09-13T03:08:47;18.70;99.90
39983;DHT22;25670;44.782;10.356;2022-09-13T03:27:47;18.60;99.90
39983;DHT22;25670;44.782;10.356;2022-09-13T03:30:16;18.60;99.90
39983;DHT22;25670;44.782;10.356;2022-09-13T03:35:45;18.60;99.90
39983;DHT22;25670;44.782;10.356;2022-09-13T03:38:18;18.50;99.90
39983;DHT22;25670;44.782;10.356;2022-09-13T03:40:48;19.60;99.90
39983;DHT22;25670;44.782;10.356;2022-09-13T03:43:35;18.50;99.90
39983;DHT22;25670;44.782;10.356;2022-09-13T03:46:06;18.40;99.90
39983;DHT22;25670;44.782;10.356;2022-09-13T03:48:36;18.40;99.90
39983;DHT22;25670;44.782;10.356;2022-09-13T03:51:05;18.30;99.90
39983;DHT22;25670;44.782;10.356;2022-09-13T03:53:34;18.40;99.90
39983;DHT22;25670;44.782;10.356;2022-09-13T03:56:18;18.40;99.90
39983;DHT22;25670;44.782;10.356;2022-09-13T03:58:45;18.50;99.90
39983;DHT22;25670;44.782;10.356;2022-09-13T04:01:12;18.30;99.90
39983;DHT22;25670;44.782;10.356;2022-09-13T04:06:06;18.40;99.90
39983;DHT22;25670;44.782;10.356;2022-09-13T04:08:32;18.40;99.90
39983;DHT22;25670;44.782;10.356;2022-09-13T04:10:59;18.40;99.90
39983;DHT22;25670;44.782;10.356;2022-09-13T04:13:25;18.30;99.90
39983;DHT22;25670;44.782;10.356;2022-09-13T04:15:52;18.30;99.90
39983;DHT22;25670;44.782;10.356;2022-09-13T04:18:19;18.20;99.90
39983;DHT22;25670;44.782;10.356;2022-09-13T04:20:56;18.20;99.90
39983;DHT22;25670;44.782;10.356;2022-09-13T04:23:23;18.10;99.90
39983;DHT22;25670;44.782;10.356;2022-09-13T04:28:17;18.00;99.90
39983;DHT22;25670;44.782;10.356;2022-09-13T04:30:44;18.00;99.90
39983;DHT22;25670;44.782;10.356;2022-09-13T04:33:11;18.00;99.90
39983;DHT22;25670;44.782;10.356;2022-09-13T04:35:38;18.00;99.90
39983;DHT22;25670;44.782;10.356;2022-09-13T04:38:05;17.90;99.90
39983;DHT22;25670;44.782;10.356;2022-09-13T04:40:31;17.90;99.90
39983;DHT22;25670;44.782;10.356;2022-09-13T04:42:57;17.80;99.90
39983;DHT22;25670;44.782;10.356;2022-09-13T04:45:25;17.80;99.90
39983;DHT22;25670;44.782;10.356;2022-09-13T04:47:52;17.70;99.90
39983;DHT22;25670;44.782;10.356;2022-09-13T04:50:19;17.70;99.90
39983;DHT22;25670;44.782;10.356;2022-09-13T04:55:15;17.80;99.90
39983;DHT22;25670;44.782;10.356;2022-09-13T04:57:42;17.70;99.90
39983;DHT22;25670;44.782;10.356;2022-09-13T05:00:08;17.70;99.90
39983;DHT22;25670;44.782;10.356;2022-09-13T05:05:02;17.60;99.90
39983;DHT22;25670;44.782;10.356;2022-09-13T05:07:28;17.80;99.90
39983;DHT22;25670;44.782;10.356;2022-09-13T05:09:54;17.70;99.90
39983;DHT22;25670;44.782;10.356;2022-09-13T05:12:20;17.70;99.90
39983;DHT22;25670;44.782;10.356;2022-09-13T05:14:46;17.80;99.90
39983;DHT22;25670;44.782;10.356;2022-09-13T05:17:13;17.80;99.90
39983;DHT22;25670;44.782;10.356;2022-09-13T05:19:39;17.70;99.90
39983;DHT22;25670;44.782;10.356;2022-09-13T05:22:05;17.80;99.90
39983;DHT22;25670;44.782;10.356;2022-09-13T05:24:31;17.90;99.90
39983;DHT22;25670;44.782;10.356;2022-09-13T05:26:58;17.90;99.90
39983;DHT22;25670;44.782;10.356;2022-09-13T05:31:50;18.20;99.90
39983;DHT22;25670;44.782;10.356;2022-09-13T05:34:17;18.10;99.90
39983;DHT22;25670;44.782;10.356;2022-09-13T05:36:44;18.10;99.90
39983;DHT22;25670;44.782;10.356;2022-09-13T05:39:15;17.90;99.90
39983;DHT22;25670;44.782;10.356;2022-09-13T05:41:43;18.20;99.90
39983;DHT22;25670;44.782;10.356;2022-09-13T05:49:03;18.50;99.90
39983;DHT22;25670;44.782;10.356;2022-09-13T05:51:29;18.60;99.90
39983;DHT22;25670;44.782;10.356;2022-09-13T05:53:57;18.60;99.90
39983;DHT22;25670;44.782;10.356;2022-09-13T05:56:26;18.70;99.90
39983;DHT22;25670;44.782;10.356;2022-09-13T05:58:53;18.70;99.90
39983;DHT22;25670;44.782;10.356;2022-09-13T06:01:22;18.80;99.90
39983;DHT22;25670;44.782;10.356;2022-09-13T06:03:50;18.80;99.90
39983;DHT22;25670;44.782;10.356;2022-09-13T06:06:17;19.00;99.90
39983;DHT22;25670;44.782;10.356;2022-09-13T06:11:12;19.10;99.90
39983;DHT22;25670;44.782;10.356;2022-09-13T06:13:39;19.10;99.90
39983;DHT22;25670;44.782;10.356;2022-09-13T06:16:08;19.20;99.90
39983;DHT22;25670;44.782;10.356;2022-09-13T06:18:35;19.30;99.90
39983;DHT22;25670;44.782;10.356;2022-09-13T06:21:10;19.80;99.90
39983;DHT22;25670;44.782;10.356;2022-09-13T06:26:06;19.40;99.90
39983;DHT22;25670;44.782;10.356;2022-09-13T06:28:34;19.60;99.90
39983;DHT22;25670;44.782;10.356;2022-09-13T06:31:04;19.60;99.90
39983;DHT22;25670;44.782;10.356;2022-09-13T06:33:32;19.70;99.90
39983;DHT22;25670;44.782;10.356;2022-09-13T06:36:00;19.70;99.90
39983;DHT22;25670;44.782;10.356;2022-09-13T06:38:27;19.80;99.90
39983;DHT22;25670;44.782;10.356;2022-09-13T06:41:06;19.90;99.90
39983;DHT22;25670;44.782;10.356;2022-09-13T06:43:33;20.00;99.90
39983;DHT22;25670;44.782;10.356;2022-09-13T06:46:05;20.10;99.90
39983;DHT22;25670;44.782;10.356;2022-09-13T06:48:33;20.20;99.90
39983;DHT22;25670;44.782;10.356;2022-09-13T06:51:01;20.30;99.90
39983;DHT22;25670;44.782;10.356;2022-09-13T06:53:28;20.40;99.90
39983;DHT22;25670;44.782;10.356;2022-09-13T06:58:33;20.70;99.90
39983;DHT22;25670;44.782;10.356;2022-09-13T07:03:40;20.80;99.90
39983;DHT22;25670;44.782;10.356;2022-09-13T07:06:10;20.80;99.90
39983;DHT22;25670;44.782;10.356;2022-09-13T07:08:37;21.70;99.90
39983;DHT22;25670;44.782;10.356;2022-09-13T07:11:04;21.00;99.90
39983;DHT22;25670;44.782;10.356;2022-09-13T07:13:30;21.00;99.90
39983;DHT22;25670;44.782;10.356;2022-09-13T07:16:00;21.10;99.90
39983;DHT22;25670;44.782;10.356;2022-09-13T07:18:26;21.10;99.90
39983;DHT22;25670;44.782;10.356;2022-09-13T07:21:01;21.20;99.90
39983;DHT22;25670;44.782;10.356;2022-09-13T07:23:29;21.50;99.90
39983;DHT22;25670;44.782;10.356;2022-09-13T07:28:35;21.60;99.90
39983;DHT22;25670;44.782;10.356;2022-09-13T07:36:01;21.90;99.90
39983;DHT22;25670;44.782;10.356;2022-09-13T07:38:33;22.00;99.90
39983;DHT22;25670;44.782;10.356;2022-09-13T07:43:27;22.10;99.90
39983;DHT22;25670;44.782;10.356;2022-09-13T07:46:01;22.20;99.90
39983;DHT22;25670;44.782;10.356;2022-09-13T07:48:29;22.50;99.90
39983;DHT22;25670;44.782;10.356;2022-09-13T07:51:01;22.80;99.90
39983;DHT22;25670;44.782;10.356;2022-09-13T07:53:28;22.50;99.90
39983;DHT22;25670;44.782;10.356;2022-09-13T07:56:03;22.50;99.90
39983;DHT22;25670;44.782;10.356;2022-09-13T07:58:31;22.60;99.90
39983;DHT22;25670;44.782;10.356;2022-09-13T08:01:05;22.70;99.90
39983;DHT22;25670;44.782;10.356;2022-09-13T08:03:35;22.70;99.90
39983;DHT22;25670;44.782;10.356;2022-09-13T08:06:02;22.80;99.90
39983;DHT22;25670;44.782;10.356;2022-09-13T08:08:30;23.00;99.90
39983;DHT22;25670;44.782;10.356;2022-09-13T08:10:57;23.00;99.90
39983;DHT22;25670;44.782;10.356;2022-09-13T08:15:50;23.10;99.90
39983;DHT22;25670;44.782;10.356;2022-09-13T08:18:17;23.20;99.90
39983;DHT22;25670;44.782;10.356;2022-09-13T08:20:44;23.30;99.90
39983;DHT22;25670;44.782;10.356;2022-09-13T08:23:11;23.30;99.90
39983;DHT22;25670;44.782;10.356;2022-09-13T08:25:38;23.40;99.90
39983;DHT22;25670;44.782;10.356;2022-09-13T08:28:09;23.50;99.90
39983;DHT22;25670;44.782;10.356;2022-09-13T08:33:06;23.70;99.90
39983;DHT22;25670;44.782;10.356;2022-09-13T08:35:33;23.70;99.90
39983;DHT22;25670;44.782;10.356;2022-09-13T08:40:46;23.80;99.90
39983;DHT22;25670;44.782;10.356;2022-09-13T08:45:51;24.00;99.90
39983;DHT22;25670;44.782;10.356;2022-09-13T08:48:22;24.00;99.90
39983;DHT22;25670;44.782;10.356;2022-09-13T08:50:53;24.20;99.90
39983;DHT22;25670;44.782;10.356;2022-09-13T08:53:29;24.10;99.90
39983;DHT22;25670;44.782;10.356;2022-09-13T08:58:32;24.30;99.90
39983;DHT22;25670;44.782;10.356;2022-09-13T09:01:07;24.40;99.90
39983;DHT22;25670;44.782;10.356;2022-09-13T09:06:12;24.50;99.90
39983;DHT22;25670;44.782;10.356;2022-09-13T09:08:50;24.50;99.90
39983;DHT22;25670;44.782;10.356;2022-09-13T09:11:40;24.70;99.90
39983;DHT22;25670;44.782;10.356;2022-09-13T09:14:31;24.80;99.90
39983;DHT22;25670;44.782;10.356;2022-09-13T09:17:02;24.80;99.90
39983;DHT22;25670;44.782;10.356;2022-09-13T09:19:41;24.90;99.90
39983;DHT22;25670;44.782;10.356;2022-09-13T09:22:20;24.90;99.90
39983;DHT22;25670;44.782;10.356;2022-09-13T09:24:51;25.00;99.90
39983;DHT22;25670;44.782;10.356;2022-09-13T09:27:19;25.10;99.90
39983;DHT22;25670;44.782;10.356;2022-09-13T09:29:54;25.20;99.90
39983;DHT22;25670;44.782;10.356;2022-09-13T09:35:27;25.30;99.90
39983;DHT22;25670;44.782;10.356;2022-09-13T09:38:09;25.40;99.90
39983;DHT22;25670;44.782;10.356;2022-09-13T09:40:39;25.40;99.90
39983;DHT22;25670;44.782;10.356;2022-09-13T09:43:19;25.50;99.90
39983;DHT22;25670;44.782;10.356;2022-09-13T09:45:51;25.60;99.90
39983;DHT22;25670;44.782;10.356;2022-09-13T09:48:23;25.60;99.90
39983;DHT22;25670;44.782;10.356;2022-09-13T09:50:54;25.70;99.90
39983;DHT22;25670;44.782;10.356;2022-09-13T09:53:33;25.80;99.90
39983;DHT22;25670;44.782;10.356;2022-09-13T09:59:25;25.90;99.90
39983;DHT22;25670;44.782;10.356;2022-09-13T10:01:52;25.90;99.90
39983;DHT22;25670;44.782;10.356;2022-09-13T10:04:21;26.00;99.90
39983;DHT22;25670;44.782;10.356;2022-09-13T10:06:48;26.10;99.90
39983;DHT22;25670;44.782;10.356;2022-09-13T10:09:17;26.20;99.90
39983;DHT22;25670;44.782;10.356;2022-09-13T10:11:48;26.30;99.90
39983;DHT22;25670;44.782;10.356;2022-09-13T10:14:36;26.40;99.90
39983;DHT22;25670;44.782;10.356;2022-09-13T10:17:16;26.50;99.90
39983;DHT22;25670;44.782;10.356;2022-09-13T10:22:39;26.60;99.90
39983;DHT22;25670;44.782;10.356;2022-09-13T10:25:24;26.70;99.90
39983;DHT22;25670;44.782;10.356;2022-09-13T10:27:54;26.70;99.90
39983;DHT22;25670;44.782;10.356;2022-09-13T10:33:00;26.90;99.90
39983;DHT22;25670;44.782;10.356;2022-09-13T10:35:28;26.90;99.90
39983;DHT22;25670;44.782;10.356;2022-09-13T10:37:54;26.90;99.90
39983;DHT22;25670;44.782;10.356;2022-09-13T10:40:30;26.90;99.90
39983;DHT22;25670;44.782;10.356;2022-09-13T10:43:05;27.00;99.90
39983;DHT22;25670;44.782;10.356;2022-09-13T10:45:39;27.10;99.90
39983;DHT22;25670;44.782;10.356;2022-09-13T10:48:13;27.10;99.90
39983;DHT22;25670;44.782;10.356;2022-09-13T10:51:00;27.20;99.90
39983;DHT22;25670;44.782;10.356;2022-09-13T10:53:41;27.40;99.90
39983;DHT22;25670;44.782;10.356;2022-09-13T10:56:24;27.60;99.90
39983;DHT22;25670;44.782;10.356;2022-09-13T10:58:51;27.60;99.90
39983;DHT22;25670;44.782;10.356;2022-09-13T11:01:39;27.70;99.90
39983;DHT22;25670;44.782;10.356;2022-09-13T11:13:22;28.10;99.90
39983;DHT22;25670;44.782;10.356;2022-09-13T11:16:01;28.20;99.90
39983;DHT22;25670;44.782;10.356;2022-09-13T11:18:45;28.30;99.90
39983;DHT22;25670;44.782;10.356;2022-09-13T11:27:43;29.00;99.90
39983;DHT22;25670;44.782;10.356;2022-09-13T11:30:22;29.20;99.90
39983;DHT22;25670;44.782;10.356;2022-09-13T11:41:38;29.40;99.90
39983;DHT22;25670;44.782;10.356;2022-09-13T11:52:33;30.00;99.90
39983;DHT22;25670;44.782;10.356;2022-09-13T11:57:55;30.30;99.90
39983;DHT22;25670;44.782;10.356;2022-09-13T12:00:31;30.50;99.90
39983;DHT22;25670;44.782;10.356;2022-09-13T12:06:10;30.60;99.90
39983;DHT22;25670;44.782;10.356;2022-09-13T12:08:43;30.40;99.90
39983;DHT22;25670;44.782;10.356;2022-09-13T12:11:26;30.50;99.90
39983;DHT22;25670;44.782;10.356;2022-09-13T12:13:59;30.60;99.90
39983;DHT22;25670;44.782;10.356;2022-09-13T12:16:57;30.60;99.90
39983;DHT22;25670;44.782;10.356;2022-09-13T12:20:04;30.50;99.90
39983;DHT22;25670;44.782;10.356;2022-09-13T12:22:26;30.70;99.90
39983;DHT22;25670;44.782;10.356;2022-09-13T12:25:02;30.90;99.90
39983;DHT22;25670;44.782;10.356;2022-09-13T12:30:14;31.50;99.90
39983;DHT22;25670;44.782;10.356;2022-09-13T12:32:42;31.50;99.90
39983;DHT22;25670;44.782;10.356;2022-09-13T12:40:37;32.00;99.90
39983;DHT22;25670;44.782;10.356;2022-09-13T12:46:25;31.70;99.90
39983;DHT22;25670;44.782;10.356;2022-09-13T12:54:39;32.10;99.90
39983;DHT22;25670;44.782;10.356;2022-09-13T13:05:36;32.40;99.90
39983;DHT22;25670;44.782;10.356;2022-09-13T13:10:44;32.50;99.90
39983;DHT22;25670;44.782;10.356;2022-09-13T13:13:22;32.70;99.80
39983;DHT22;25670;44.782;10.356;2022-09-13T13:15:56;32.70;99.90
39983;DHT22;25670;44.782;10.356;2022-09-13T13:23:36;32.80;99.50
39983;DHT22;25670;44.782;10.356;2022-09-13T13:26:12;33.00;99.90
39983;DHT22;25670;44.782;10.356;2022-09-13T13:29:33;33.10;99.10
39983;DHT22;25670;44.782;10.356;2022-09-13T13:34:45;32.30;99.50
39983;DHT22;25670;44.782;10.356;2022-09-13T13:39:44;32.50;99.40
39983;DHT22;25670;44.782;10.356;2022-09-13T13:42:29;32.90;99.80
39983;DHT22;25670;44.782;10.356;2022-09-13T13:45:18;33.10;99.40
39983;DHT22;25670;44.782;10.356;2022-09-13T13:48:05;32.90;99.90
39983;DHT22;25670;44.782;10.356;2022-09-13T13:50:33;33.10;99.30
39983;DHT22;25670;44.782;10.356;2022-09-13T13:53:19;32.70;99.10
39983;DHT22;25670;44.782;10.356;2022-09-13T13:55:47;32.80;99.50
39983;DHT22;25670;44.782;10.356;2022-09-13T13:58:28;33.20;99.90
39983;DHT22;25670;44.782;10.356;2022-09-13T14:00:55;33.40;99.20
39983;DHT22;25670;44.782;10.356;2022-09-13T14:06:23;34.00;98.60
39983;DHT22;25670;44.782;10.356;2022-09-13T14:19:42;32.50;99.40
39983;DHT22;25670;44.782;10.356;2022-09-13T14:24:54;31.90;99.60
39983;DHT22;25670;44.782;10.356;2022-09-13T14:27:29;31.70;99.70
39983;DHT22;25670;44.782;10.356;2022-09-13T14:29:58;31.60;99.90
39983;DHT22;25670;44.782;10.356;2022-09-13T14:32:27;31.90;99.90
39983;DHT22;25670;44.782;10.356;2022-09-13T14:34:55;32.30;99.90
39983;DHT22;25670;44.782;10.356;2022-09-13T14:37:29;32.80;99.40
39983;DHT22;25670;44.782;10.356;2022-09-13T14:42:44;33.50;98.30
39983;DHT22;25670;44.782;10.356;2022-09-13T14:45:30;33.30;98.10
39983;DHT22;25670;44.782;10.356;2022-09-13T14:50:28;33.00;98.30
39983;DHT22;25670;44.782;10.356;2022-09-13T14:52:59;32.90;98.90
39983;DHT22;25670;44.782;10.356;2022-09-13T14:55:30;33.00;98.50
39983;DHT22;25670;44.782;10.356;2022-09-13T14:58:04;33.10;98.80
39983;DHT22;25670;44.782;10.356;2022-09-13T15:00:34;32.80;98.30
39983;DHT22;25670;44.782;10.356;2022-09-13T15:03:04;32.70;98.40
39983;DHT22;25670;44.782;10.356;2022-09-13T15:05:36;32.60;98.70
39983;DHT22;25670;44.782;10.356;2022-09-13T15:08:24;32.40;98.70
39983;DHT22;25670;44.782;10.356;2022-09-13T15:10:51;32.20;99.10
39983;DHT22;25670;44.782;10.356;2022-09-13T15:13:17;31.90;99.20
39983;DHT22;25670;44.782;10.356;2022-09-13T15:15:44;31.40;99.70
39983;DHT22;25670;44.782;10.356;2022-09-13T15:21:03;31.10;99.90
39983;DHT22;25670;44.782;10.356;2022-09-13T15:23:32;31.10;99.90
39983;DHT22;25670;44.782;10.356;2022-09-13T15:28:32;30.80;99.90
39983;DHT22;25670;44.782;10.356;2022-09-13T15:31:01;30.80;99.90
39983;DHT22;25670;44.782;10.356;2022-09-13T15:33:32;30.80;99.90
39983;DHT22;25670;44.782;10.356;2022-09-13T15:39:03;30.80;99.90
39983;DHT22;25670;44.782;10.356;2022-09-13T15:41:40;30.60;99.90
39983;DHT22;25670;44.782;10.356;2022-09-13T15:44:15;30.40;99.90
39983;DHT22;25670;44.782;10.356;2022-09-13T15:46:54;30.30;99.90
39983;DHT22;25670;44.782;10.356;2022-09-13T15:49:23;30.20;99.90
39983;DHT22;25670;44.782;10.356;2022-09-13T15:51:56;30.10;99.90
39983;DHT22;25670;44.782;10.356;2022-09-13T15:54:32;30.00;99.90
39983;DHT22;25670;44.782;10.356;2022-09-13T15:56:58;29.70;99.90
39983;DHT22;25670;44.782;10.356;2022-09-13T15:59:24;29.60;99.90
39983;DHT22;25670;44.782;10.356;2022-09-13T16:01:51;29.60;99.90
39983;DHT22;25670;44.782;10.356;2022-09-13T16:04:18;29.70;99.90
39983;DHT22;25670;44.782;10.356;2022-09-13T16:06:44;29.60;99.90
39983;DHT22;25670;44.782;10.356;2022-09-13T16:09:22;27.50;99.90
39983;DHT22;25670;44.782;10.356;2022-09-13T16:11:50;29.30;99.90
39983;DHT22;25670;44.782;10.356;2022-09-13T16:14:17;29.20;99.90
39983;DHT22;25670;44.782;10.356;2022-09-13T16:16:44;29.10;99.90
39983;DHT22;25670;44.782;10.356;2022-09-13T16:19:17;28.60;99.90
39983;DHT22;25670;44.782;10.356;2022-09-13T16:21:43;29.10;99.90
39983;DHT22;25670;44.782;10.356;2022-09-13T16:24:10;29.00;99.90
39983;DHT22;25670;44.782;10.356;2022-09-13T16:26:37;28.90;99.90
39983;DHT22;25670;44.782;10.356;2022-09-13T16:29:04;28.80;99.90
39983;DHT22;25670;44.782;10.356;2022-09-13T16:31:31;28.80;99.90
39983;DHT22;25670;44.782;10.356;2022-09-13T16:33:57;28.70;99.90
39983;DHT22;25670;44.782;10.356;2022-09-13T16:36:23;28.70;99.90
39983;DHT22;25670;44.782;10.356;2022-09-13T16:38:52;28.80;99.90
39983;DHT22;25670;44.782;10.356;2022-09-13T16:41:18;28.80;99.90
39983;DHT22;25670;44.782;10.356;2022-09-13T16:43:44;28.80;99.90
39983;DHT22;25670;44.782;10.356;2022-09-13T16:46:11;29.10;99.90
39983;DHT22;25670;44.782;10.356;2022-09-13T16:48:38;29.40;99.90
39983;DHT22;25670;44.782;10.356;2022-09-13T16:51:07;29.60;99.90
39983;DHT22;25670;44.782;10.356;2022-09-13T16:53:35;29.70;99.90
39983;DHT22;25670;44.782;10.356;2022-09-13T16:56:22;29.60;99.90
39983;DHT22;25670;44.782;10.356;2022-09-13T16:58:49;29.50;99.90
39983;DHT22;25670;44.782;10.356;2022-09-13T17:01:19;29.30;99.90
39983;DHT22;25670;44.782;10.356;2022-09-13T17:03:46;29.20;99.90
39983;DHT22;25670;44.782;10.356;2022-09-13T17:06:15;29.00;99.90
39983;DHT22;25670;44.782;10.356;2022-09-13T17:08:49;28.70;99.90
39983;DHT22;25670;44.782;10.356;2022-09-13T17:11:18;28.50;99.90
39983;DHT22;25670;44.782;10.356;2022-09-13T17:13:45;28.40;99.90
39983;DHT22;25670;44.782;10.356;2022-09-13T17:16:29;28.20;99.90
39983;DHT22;25670;44.782;10.356;2022-09-13T17:18:59;28.00;99.90
39983;DHT22;25670;44.782;10.356;2022-09-13T17:21:26;27.90;99.90
39983;DHT22;25670;44.782;10.356;2022-09-13T17:23:53;27.80;99.90
39983;DHT22;25670;44.782;10.356;2022-09-13T17:26:20;27.60;99.90
39983;DHT22;25670;44.782;10.356;2022-09-13T17:28:46;27.40;99.90
39983;DHT22;25670;44.782;10.356;2022-09-13T17:31:13;27.20;99.90
39983;DHT22;25670;44.782;10.356;2022-09-13T17:33:40;27.10;99.90
39983;DHT22;25670;44.782;10.356;2022-09-13T17:36:08;26.90;99.90
39983;DHT22;25670;44.782;10.356;2022-09-13T17:38:35;26.70;99.90
39983;DHT22;25670;44.782;10.356;2022-09-13T17:41:06;26.40;99.90
39983;DHT22;25670;44.782;10.356;2022-09-13T17:43:35;26.20;99.90
39983;DHT22;25670;44.782;10.356;2022-09-13T17:46:06;26.10;99.90
39983;DHT22;25670;44.782;10.356;2022-09-13T17:48:33;25.80;99.90
39983;DHT22;25670;44.782;10.356;2022-09-13T17:51:01;25.80;99.90
39983;DHT22;25670;44.782;10.356;2022-09-13T17:53:28;25.70;99.90
39983;DHT22;25670;44.782;10.356;2022-09-13T17:55:54;25.60;99.90
39983;DHT22;25670;44.782;10.356;2022-09-13T17:58:24;25.50;99.90
39983;DHT22;25670;44.782;10.356;2022-09-13T18:01:02;25.40;99.90
39983;DHT22;25670;44.782;10.356;2022-09-13T18:03:29;25.30;99.90
39983;DHT22;25670;44.782;10.356;2022-09-13T18:05:58;25.30;99.90
39983;DHT22;25670;44.782;10.356;2022-09-13T18:08:26;25.30;99.90
39983;DHT22;25670;44.782;10.356;2022-09-13T18:10:53;25.20;99.90
39983;DHT22;25670;44.782;10.356;2022-09-13T18:13:20;25.10;99.90
39983;DHT22;25670;44.782;10.356;2022-09-13T18:16:07;25.10;99.90
39983;DHT22;25670;44.782;10.356;2022-09-13T18:18:35;25.00;99.90
39983;DHT22;25670;44.782;10.356;2022-09-13T18:21:02;24.90;99.90
39983;DHT22;25670;44.782;10.356;2022-09-13T18:23:28;24.80;99.90
39983;DHT22;25670;44.782;10.356;2022-09-13T18:25:57;24.70;99.90
39983;DHT22;25670;44.782;10.356;2022-09-13T18:28:24;24.60;99.90
39983;DHT22;25670;44.782;10.356;2022-09-13T18:30:56;24.60;99.90
39983;DHT22;25670;44.782;10.356;2022-09-13T18:33:23;24.50;99.90
39983;DHT22;25670;44.782;10.356;2022-09-13T18:36:04;24.50;99.90
39983;DHT22;25670;44.782;10.356;2022-09-13T18:38:33;24.30;99.90
39983;DHT22;25670;44.782;10.356;2022-09-13T18:41:05;24.30;99.90
39983;DHT22;25670;44.782;10.356;2022-09-13T18:43:34;24.20;99.90
39983;DHT22;25670;44.782;10.356;2022-09-13T18:46:04;24.20;99.90
39983;DHT22;25670;44.782;10.356;2022-09-13T18:48:35;24.10;99.90
39983;DHT22;25670;44.782;10.356;2022-09-13T18:51:03;24.10;99.90
39983;DHT22;25670;44.782;10.356;2022-09-13T18:53:32;24.20;99.90
39983;DHT22;25670;44.782;10.356;2022-09-13T18:56:03;24.30;99.90
39983;DHT22;25670;44.782;10.356;2022-09-13T18:58:31;24.30;99.90
39983;DHT22;25670;44.782;10.356;2022-09-13T19:01:08;24.30;99.90
39983;DHT22;25670;44.782;10.356;2022-09-13T19:03:35;24.30;99.90
39983;DHT22;25670;44.782;10.356;2022-09-13T19:08:40;24.40;99.90
39983;DHT22;25670;44.782;10.356;2022-09-13T19:11:07;24.50;99.90
39983;DHT22;25670;44.782;10.356;2022-09-13T19:13:34;24.50;99.90
39983;DHT22;25670;44.782;10.356;2022-09-13T19:16:04;24.40;99.90
39983;DHT22;25670;44.782;10.356;2022-09-13T19:18:30;24.40;99.90
39983;DHT22;25670;44.782;10.356;2022-09-13T19:21:12;24.50;99.90
39983;DHT22;25670;44.782;10.356;2022-09-13T19:23:40;24.30;99.90
39983;DHT22;25670;44.782;10.356;2022-09-13T19:26:14;24.40;99.90
39983;DHT22;25670;44.782;10.356;2022-09-13T19:29:02;24.30;99.90